createdAt,value
2017-10-17T00:02:16.685Z,13.81
2017-10-17T00:04:44.306Z,13.73
2017-10-17T00:07:12.165Z,13.65
2017-10-17T00:09:39.853Z,13.80
2017-10-17T00:12:07.541Z,13.70
2017-10-17T00:14:36.097Z,13.56
2017-10-17T00:17:03.752Z,13.54
2017-10-17T00:19:31.374Z,13.50
2017-10-17T00:21:59.040Z,13.53
2017-10-17T00:24:26.717Z,13.49
2017-10-17T00:26:54.332Z,13.53
2017-10-17T00:29:21.984Z,13.50
2017-10-17T00:31:49.692Z,13.48
2017-10-17T00:34:17.547Z,13.53
2017-10-17T00:36:45.209Z,13.44
2017-10-17T00:39:12.861Z,13.42
2017-10-17T00:44:07.477Z,13.29
2017-10-17T00:46:35.247Z,13.29
2017-10-17T00:49:02.870Z,13.33
2017-10-17T00:51:31.442Z,13.39
2017-10-17T00:54:06.796Z,13.31
2017-10-17T00:56:34.496Z,13.25
2017-10-17T01:01:29.045Z,13.19
2017-10-17T01:03:56.670Z,13.14
2017-10-17T01:06:24.830Z,13.06
2017-10-17T01:08:52.521Z,13.06
2017-10-17T01:11:20.349Z,13.10
2017-10-17T01:13:48.170Z,13.05
2017-10-17T01:16:15.809Z,13.10
2017-10-17T01:18:43.645Z,13.00
2017-10-17T01:21:12.185Z,12.96
2017-10-17T01:23:50.591Z,12.97
2017-10-17T01:26:22.062Z,12.98
2017-10-17T01:28:49.967Z,13.03
2017-10-17T01:31:17.919Z,13.02
2017-10-17T01:33:50.519Z,13.02
2017-10-17T01:36:18.185Z,12.95
2017-10-17T01:38:50.023Z,12.95
2017-10-17T01:41:17.662Z,12.92
2017-10-17T01:46:55.890Z,12.60
2017-10-17T01:49:30.037Z,12.77
2017-10-17T01:54:56.664Z,12.78
2017-10-17T01:57:24.538Z,12.80
2017-10-17T01:59:56.926Z,12.80
2017-10-17T02:02:24.616Z,12.81
2017-10-17T02:04:52.224Z,12.73
2017-10-17T02:07:19.857Z,12.70
2017-10-17T02:09:59.984Z,12.72
2017-10-17T02:12:27.649Z,12.73
2017-10-17T02:14:55.354Z,12.66
2017-10-17T02:17:30.498Z,12.73
2017-10-17T02:19:58.172Z,12.72
2017-10-17T02:22:45.289Z,12.59
2017-10-17T02:25:15.848Z,12.56
2017-10-17T02:27:43.424Z,12.62
2017-10-17T02:30:20.743Z,12.64
2017-10-17T02:32:48.618Z,12.34
2017-10-17T02:35:18.804Z,12.32
2017-10-17T02:37:46.468Z,12.36
2017-10-17T02:40:14.102Z,12.30
2017-10-17T02:42:41.785Z,12.34
2017-10-17T02:45:09.471Z,12.35
2017-10-17T02:47:38.068Z,12.31
2017-10-17T02:50:16.546Z,12.20
2017-10-17T02:52:44.148Z,12.16
2017-10-17T02:55:15.579Z,12.27
2017-10-17T02:57:43.264Z,12.42
2017-10-17T03:00:11.902Z,12.21
2017-10-17T03:02:54.368Z,11.99
2017-10-17T03:05:24.967Z,11.80
2017-10-17T03:07:52.605Z,11.83
2017-10-17T03:10:20.281Z,11.78
2017-10-17T03:12:47.949Z,11.84
2017-10-17T03:18:11.729Z,11.74
2017-10-17T03:20:39.309Z,11.82
2017-10-17T03:23:10.477Z,11.98
2017-10-17T03:25:38.136Z,11.78
2017-10-17T03:28:15.636Z,11.72
2017-10-17T03:30:43.971Z,11.72
2017-10-17T03:33:17.154Z,11.75
2017-10-17T03:35:44.780Z,11.84
2017-10-17T03:38:22.375Z,11.59
2017-10-17T03:40:55.522Z,11.60
2017-10-17T03:43:44.792Z,11.68
2017-10-17T03:46:12.457Z,11.41
2017-10-17T03:48:41.901Z,11.39
2017-10-17T03:51:09.684Z,11.33
2017-10-17T03:53:54.837Z,11.39
2017-10-17T03:56:25.777Z,11.43
2017-10-17T03:58:55.262Z,11.46
2017-10-17T04:01:35.776Z,11.57
2017-10-17T04:07:34.793Z,11.45
2017-10-17T04:10:17.068Z,12.09
2017-10-17T04:12:47.272Z,12.73
2017-10-17T04:15:14.900Z,13.03
2017-10-17T04:17:51.073Z,12.84
2017-10-17T04:20:23.592Z,12.17
2017-10-17T04:22:51.208Z,11.90
2017-10-17T04:25:19.660Z,11.87
2017-10-17T04:27:47.483Z,11.81
2017-10-17T04:30:25.040Z,11.87
2017-10-17T04:36:16.604Z,11.80
2017-10-17T04:38:44.520Z,11.66
2017-10-17T04:41:12.105Z,11.51
2017-10-17T04:46:49.584Z,14.36
2017-10-17T04:49:39.537Z,14.02
2017-10-17T04:52:10.012Z,12.92
2017-10-17T04:54:53.317Z,12.80
2017-10-17T04:57:32.649Z,12.92
2017-10-17T05:00:13.790Z,13.64
2017-10-17T05:02:41.391Z,13.68
2017-10-17T05:05:29.434Z,14.08
2017-10-17T05:07:57.780Z,14.34
2017-10-17T05:10:30.049Z,14.51
2017-10-17T05:16:20.184Z,14.72
2017-10-17T05:19:02.736Z,14.65
2017-10-17T05:21:30.440Z,14.86
2017-10-17T05:26:57.883Z,15.01
2017-10-17T05:29:25.509Z,15.23
2017-10-17T05:31:53.177Z,15.08
2017-10-17T05:34:23.280Z,14.92
2017-10-17T05:36:55.510Z,15.11
2017-10-17T05:39:23.145Z,15.49
2017-10-17T05:41:50.798Z,15.94
2017-10-17T05:44:20.353Z,16.56
2017-10-17T05:46:48.013Z,17.18
2017-10-17T05:49:18.432Z,17.42
2017-10-17T05:51:46.067Z,18.19
2017-10-17T05:54:13.668Z,18.67
2017-10-17T05:56:41.271Z,19.28
2017-10-17T05:59:08.896Z,19.34
2017-10-17T06:01:36.531Z,19.14
2017-10-17T06:04:04.153Z,19.11
2017-10-17T06:06:32.074Z,19.13
2017-10-17T06:08:59.756Z,19.31
2017-10-17T06:11:27.592Z,19.05
2017-10-17T06:13:55.182Z,19.70
2017-10-17T06:16:22.783Z,20.16
2017-10-17T06:18:50.423Z,20.80
2017-10-17T06:21:18.239Z,20.73
2017-10-17T06:23:45.874Z,21.12
2017-10-17T06:26:13.473Z,21.66
2017-10-17T06:28:41.073Z,21.55
2017-10-17T06:31:08.698Z,22.02
2017-10-17T06:33:36.543Z,22.37
2017-10-17T06:36:04.204Z,22.90
2017-10-17T06:38:31.826Z,22.35
2017-10-17T06:40:59.432Z,23.15
2017-10-17T06:43:27.024Z,23.49
2017-10-17T06:45:54.645Z,23.98
2017-10-17T06:48:22.247Z,24.03
2017-10-17T06:50:49.837Z,23.89
2017-10-17T06:53:17.563Z,23.78
2017-10-17T06:55:45.424Z,23.53
2017-10-17T06:58:12.995Z,24.06
2017-10-17T07:00:40.715Z,24.20
2017-10-17T07:03:09.233Z,24.01
2017-10-17T07:05:36.889Z,24.32
2017-10-17T07:08:04.572Z,24.46
2017-10-17T07:10:32.372Z,24.30
2017-10-17T07:13:00.286Z,24.18
2017-10-17T07:15:27.948Z,24.44
2017-10-17T07:17:55.516Z,25.24
2017-10-17T07:20:23.105Z,25.09
2017-10-17T07:22:50.834Z,25.09
2017-10-17T07:25:18.705Z,24.88
2017-10-17T07:27:46.333Z,25.24
2017-10-17T07:30:13.999Z,26.04
2017-10-17T07:32:41.654Z,26.66
2017-10-17T07:35:09.333Z,26.52
2017-10-17T07:37:36.989Z,26.15
2017-10-17T07:40:04.595Z,26.04
2017-10-17T07:42:32.224Z,25.20
2017-10-17T07:44:59.856Z,25.36
2017-10-17T07:47:27.485Z,25.74
2017-10-17T07:49:55.146Z,25.83
2017-10-17T07:52:22.799Z,24.86
2017-10-17T07:54:50.417Z,25.96
2017-10-17T07:57:18.035Z,24.73
2017-10-17T07:59:45.665Z,25.65
2017-10-17T08:02:13.605Z,25.25
2017-10-17T08:04:41.246Z,25.24
2017-10-17T08:07:09.060Z,25.59
2017-10-17T08:09:36.731Z,26.29
2017-10-17T08:12:04.337Z,26.39
2017-10-17T08:14:32.246Z,26.68
2017-10-17T08:16:59.998Z,26.54
2017-10-17T08:19:27.579Z,26.46
2017-10-17T08:21:55.383Z,26.50
2017-10-17T08:24:23.054Z,27.31
2017-10-17T08:26:50.870Z,27.56
2017-10-17T08:29:18.583Z,27.57
2017-10-17T08:31:46.239Z,27.78
2017-10-17T08:34:13.857Z,27.54
2017-10-17T08:36:41.513Z,28.01
2017-10-17T08:39:09.180Z,28.09
2017-10-17T08:41:36.785Z,28.16
2017-10-17T08:44:04.352Z,28.67
2017-10-17T08:46:31.984Z,27.69
2017-10-17T08:48:59.580Z,27.96
2017-10-17T08:51:27.206Z,26.92
2017-10-17T08:53:54.864Z,27.30
2017-10-17T08:56:22.446Z,27.29
2017-10-17T08:58:50.021Z,26.34
2017-10-17T09:01:17.642Z,27.13
2017-10-17T09:03:45.256Z,27.14
2017-10-17T09:06:12.858Z,27.31
2017-10-17T09:08:40.472Z,27.79
2017-10-17T09:11:08.027Z,27.85
2017-10-17T09:13:35.591Z,27.88
2017-10-17T09:16:03.235Z,28.27
2017-10-17T09:18:31.121Z,28.09
2017-10-17T09:20:58.743Z,28.08
2017-10-17T09:23:26.500Z,28.18
2017-10-17T09:25:54.099Z,29.16
2017-10-17T09:28:22.504Z,29.43
2017-10-17T09:30:50.926Z,29.06
2017-10-17T09:33:18.505Z,28.02
2017-10-17T09:35:46.130Z,28.13
2017-10-17T09:38:13.785Z,28.45
2017-10-17T09:40:41.413Z,28.49
2017-10-17T09:43:08.976Z,27.97
2017-10-17T09:45:36.606Z,28.06
2017-10-17T09:48:04.182Z,28.25
2017-10-17T09:50:31.817Z,27.88
2017-10-17T09:52:59.457Z,27.55
2017-10-17T09:55:27.042Z,27.84
2017-10-17T09:57:54.605Z,27.26
2017-10-17T10:00:22.374Z,26.97
2017-10-17T10:02:49.957Z,27.70
2017-10-17T10:05:17.673Z,27.62
2017-10-17T10:07:45.524Z,27.84
2017-10-17T10:10:13.104Z,27.29
2017-10-17T10:12:40.993Z,27.38
2017-10-17T10:15:08.757Z,26.80
2017-10-17T10:17:36.380Z,27.48
2017-10-17T10:20:04.218Z,27.34
2017-10-17T10:22:31.881Z,27.47
2017-10-17T10:24:59.440Z,27.44
2017-10-17T10:27:27.024Z,27.87
2017-10-17T10:29:54.796Z,27.89
2017-10-17T10:32:22.448Z,27.92
2017-10-17T10:34:50.326Z,27.45
2017-10-17T10:37:17.953Z,27.88
2017-10-17T10:39:45.578Z,28.17
2017-10-17T10:42:13.170Z,27.63
2017-10-17T10:44:40.790Z,26.82
2017-10-17T10:47:08.459Z,27.31
2017-10-17T10:49:36.052Z,27.49
2017-10-17T10:52:03.666Z,27.28
2017-10-17T10:54:31.285Z,27.69
2017-10-17T10:56:58.881Z,27.76
2017-10-17T10:59:26.492Z,27.94
2017-10-17T11:01:54.138Z,28.30
2017-10-17T11:04:21.967Z,28.02
2017-10-17T11:06:49.701Z,28.26
2017-10-17T11:09:17.354Z,28.09
2017-10-17T11:11:44.991Z,27.60
2017-10-17T11:14:12.621Z,27.51
2017-10-17T11:16:40.247Z,27.06
2017-10-17T11:19:07.843Z,26.94
2017-10-17T11:21:35.508Z,27.24
2017-10-17T11:24:03.137Z,27.65
2017-10-17T11:26:30.770Z,27.51
2017-10-17T11:28:58.417Z,27.40
2017-10-17T11:31:26.047Z,27.78
2017-10-17T11:33:53.641Z,27.69
2017-10-17T11:36:21.241Z,28.22
2017-10-17T11:38:48.859Z,28.41
2017-10-17T11:41:28.427Z,28.67
2017-10-17T11:43:56.092Z,28.92
2017-10-17T11:46:23.700Z,29.00
2017-10-17T11:48:51.526Z,29.03
2017-10-17T11:51:20.036Z,29.16
2017-10-17T11:53:47.687Z,29.31
2017-10-17T11:56:15.300Z,29.51
2017-10-17T11:58:42.936Z,29.30
2017-10-17T12:01:10.582Z,29.10
2017-10-17T12:03:38.207Z,28.94
2017-10-17T12:06:05.785Z,28.58
2017-10-17T12:08:33.553Z,28.66
2017-10-17T12:11:01.198Z,28.61
2017-10-17T12:13:29.051Z,28.74
2017-10-17T12:15:56.728Z,28.74
2017-10-17T12:18:24.356Z,28.50
2017-10-17T12:20:52.025Z,28.68
2017-10-17T12:23:19.688Z,28.58
2017-10-17T12:25:47.308Z,28.89
2017-10-17T12:28:14.892Z,29.08
2017-10-17T12:30:42.563Z,29.03
2017-10-17T12:33:10.147Z,29.03
2017-10-17T12:35:37.732Z,28.92
2017-10-17T12:38:05.372Z,28.92
2017-10-17T12:40:32.948Z,28.77
2017-10-17T12:43:00.524Z,28.79
2017-10-17T12:45:28.230Z,29.13
2017-10-17T12:47:55.811Z,29.27
2017-10-17T12:50:23.421Z,29.21
2017-10-17T12:52:51.059Z,29.11
2017-10-17T12:55:18.625Z,29.24
2017-10-17T12:57:46.249Z,29.23
2017-10-17T13:00:14.060Z,29.06
2017-10-17T13:02:41.655Z,28.85
2017-10-17T13:05:09.488Z,28.59
2017-10-17T13:07:37.150Z,28.16
2017-10-17T13:10:04.772Z,28.00
2017-10-17T13:12:32.352Z,27.86
2017-10-17T13:14:59.966Z,27.61
2017-10-17T13:17:27.573Z,27.30
2017-10-17T13:19:56.034Z,27.07
2017-10-17T13:22:23.771Z,27.04
2017-10-17T13:24:51.455Z,26.79
2017-10-17T13:27:19.054Z,26.53
2017-10-17T13:29:46.707Z,26.48
2017-10-17T13:32:14.408Z,26.46
2017-10-17T13:34:42.295Z,26.17
2017-10-17T13:37:09.931Z,26.06
2017-10-17T13:39:37.553Z,26.11
2017-10-17T13:42:05.147Z,26.00
2017-10-17T13:44:32.928Z,26.01
2017-10-17T13:47:00.625Z,25.70
2017-10-17T13:49:28.253Z,25.62
2017-10-17T13:51:55.844Z,25.75
2017-10-17T13:54:23.448Z,25.63
2017-10-17T13:56:51.076Z,25.56
2017-10-17T13:59:18.708Z,25.53
2017-10-17T14:01:46.350Z,25.60
2017-10-17T14:04:14.192Z,25.39
2017-10-17T14:06:41.780Z,25.50
2017-10-17T14:09:09.423Z,25.48
2017-10-17T14:11:37.040Z,25.47
2017-10-17T14:14:04.874Z,25.45
2017-10-17T14:16:32.552Z,25.34
2017-10-17T14:19:00.164Z,25.32
2017-10-17T14:21:27.785Z,25.26
2017-10-17T14:23:55.422Z,25.18
2017-10-17T14:26:23.015Z,25.14
2017-10-17T14:28:50.638Z,25.07
2017-10-17T14:31:18.305Z,25.05
2017-10-17T14:33:46.125Z,25.00
2017-10-17T14:36:13.817Z,24.90
2017-10-17T14:38:41.533Z,24.75
2017-10-17T14:41:12.203Z,24.73
2017-10-17T14:43:39.843Z,24.61
2017-10-17T14:46:07.566Z,24.59
2017-10-17T14:48:35.361Z,24.51
2017-10-17T14:51:02.979Z,24.40
2017-10-17T14:53:30.589Z,24.38
2017-10-17T14:55:58.262Z,24.39
2017-10-17T14:58:25.881Z,24.24
2017-10-17T15:00:53.570Z,24.17
2017-10-17T15:03:21.166Z,24.07
2017-10-17T15:05:48.793Z,23.99
2017-10-17T15:08:16.429Z,23.90
2017-10-17T15:10:44.030Z,23.72
2017-10-17T15:13:11.673Z,23.68
2017-10-17T15:15:39.710Z,23.68
2017-10-17T15:18:10.904Z,23.54
2017-10-17T15:20:38.521Z,23.47
2017-10-17T15:23:06.148Z,23.39
2017-10-17T15:25:33.760Z,23.30
2017-10-17T15:28:01.349Z,23.27
2017-10-17T15:30:29.069Z,23.19
2017-10-17T15:32:56.916Z,22.99
2017-10-17T15:35:24.717Z,23.08
2017-10-17T15:37:52.334Z,23.02
2017-10-17T15:40:20.153Z,22.87
2017-10-17T15:42:47.730Z,22.83
2017-10-17T15:45:15.382Z,22.81
2017-10-17T15:47:43.012Z,22.74
2017-10-17T15:50:10.636Z,22.45
2017-10-17T15:52:38.318Z,22.38
2017-10-17T15:55:05.943Z,22.44
2017-10-17T15:57:33.823Z,22.43
2017-10-17T16:00:01.445Z,22.31
2017-10-17T16:02:29.067Z,22.20
2017-10-17T16:04:56.858Z,21.99
2017-10-17T16:07:24.468Z,21.94
2017-10-17T16:09:52.100Z,21.81
2017-10-17T16:12:19.719Z,21.66
2017-10-17T16:14:47.310Z,21.52
2017-10-17T16:17:14.930Z,21.59
2017-10-17T16:19:42.510Z,21.51
2017-10-17T16:22:10.122Z,21.57
2017-10-17T16:24:37.750Z,21.53
2017-10-17T16:27:05.397Z,21.44
2017-10-17T16:29:33.210Z,21.25
2017-10-17T16:32:00.924Z,21.07
2017-10-17T16:34:28.597Z,21.16
2017-10-17T16:36:56.209Z,21.06
2017-10-17T16:39:23.850Z,21.06
2017-10-17T16:41:51.447Z,21.04
2017-10-17T16:44:19.029Z,20.74
2017-10-17T16:46:46.640Z,20.84
2017-10-17T16:49:14.225Z,20.83
2017-10-17T16:51:41.897Z,20.74
2017-10-17T16:54:09.551Z,20.79
2017-10-17T16:56:37.131Z,20.83
2017-10-17T16:59:04.711Z,20.84
2017-10-17T17:01:32.721Z,20.82
2017-10-17T17:04:01.037Z,20.75
2017-10-17T17:06:28.861Z,20.46
2017-10-17T17:08:56.490Z,20.22
2017-10-17T17:11:24.154Z,20.15
2017-10-17T17:13:51.892Z,20.13
2017-10-17T17:16:20.401Z,20.08
2017-10-17T17:18:48.592Z,19.88
2017-10-17T17:21:16.163Z,19.69
2017-10-17T17:23:43.856Z,19.53
2017-10-17T17:26:11.417Z,19.62
2017-10-17T17:28:39.272Z,19.50
2017-10-17T17:31:06.928Z,19.33
2017-10-17T17:33:34.596Z,19.42
2017-10-17T17:36:02.808Z,19.25
2017-10-17T17:38:30.483Z,19.33
2017-10-17T17:40:58.184Z,19.29
2017-10-17T17:43:26.765Z,19.16
2017-10-17T17:45:55.184Z,18.97
2017-10-17T17:48:22.854Z,18.68
2017-10-17T17:50:50.517Z,18.29
2017-10-17T17:53:18.121Z,18.08
2017-10-17T17:55:45.939Z,18.08
2017-10-17T17:58:13.563Z,18.08
2017-10-17T18:00:41.172Z,18.17
2017-10-17T18:03:08.732Z,17.78
2017-10-17T18:05:36.296Z,17.59
2017-10-17T18:08:03.935Z,17.78
2017-10-17T18:10:32.427Z,17.84
2017-10-17T18:13:00.725Z,17.95
2017-10-17T18:15:28.360Z,17.98
2017-10-17T18:17:56.770Z,18.02
2017-10-17T18:20:24.409Z,17.97
2017-10-17T18:22:52.029Z,18.07
2017-10-17T18:25:19.630Z,18.16
2017-10-17T18:27:47.202Z,18.28
2017-10-17T18:30:15.122Z,18.28
2017-10-17T18:32:42.704Z,18.31
2017-10-17T18:35:10.331Z,18.30
2017-10-17T18:37:39.021Z,18.24
2017-10-17T18:40:06.594Z,18.01
2017-10-17T18:42:34.250Z,17.97
2017-10-17T18:45:01.933Z,17.94
2017-10-17T18:47:29.546Z,18.07
2017-10-17T18:49:57.131Z,18.11
2017-10-17T18:52:24.757Z,18.10
2017-10-17T18:54:52.503Z,18.08
2017-10-17T18:57:20.088Z,18.05
2017-10-17T18:59:47.722Z,18.10
2017-10-17T19:02:15.354Z,18.07
2017-10-17T19:04:42.947Z,18.12
2017-10-17T19:07:10.522Z,18.16
2017-10-17T19:09:38.142Z,18.13
2017-10-17T19:12:05.762Z,18.15
2017-10-17T19:14:34.115Z,18.18
2017-10-17T19:17:02.480Z,18.06
2017-10-17T19:19:30.150Z,18.08
2017-10-17T19:21:58.559Z,18.06
2017-10-17T19:24:26.998Z,18.05
2017-10-17T19:26:54.868Z,18.05
2017-10-17T19:29:22.448Z,18.00
2017-10-17T19:31:50.112Z,17.93
2017-10-17T19:34:17.796Z,17.88
2017-10-17T19:36:45.670Z,17.84
2017-10-17T19:39:13.344Z,18.56
2017-10-17T19:41:41.290Z,18.37
2017-10-17T19:44:09.430Z,17.88
2017-10-17T19:46:37.920Z,17.78
2017-10-17T19:49:05.544Z,17.82
2017-10-17T19:51:33.128Z,17.80
2017-10-17T19:54:00.741Z,17.78
2017-10-17T19:56:28.404Z,17.72
2017-10-17T19:58:56.026Z,17.54
2017-10-17T20:01:23.645Z,17.47
2017-10-17T20:03:52.166Z,17.53
2017-10-17T20:06:20.005Z,17.56
2017-10-17T20:08:47.685Z,17.45
2017-10-17T20:11:15.618Z,17.50
2017-10-17T20:13:43.246Z,17.50
2017-10-17T20:16:10.878Z,17.45
2017-10-17T20:18:38.499Z,17.32
2017-10-17T20:21:06.112Z,17.29
2017-10-17T20:23:33.842Z,17.17
2017-10-17T20:26:01.689Z,17.37
2017-10-17T20:28:29.387Z,17.21
2017-10-17T20:30:57.049Z,17.03
2017-10-17T20:33:24.689Z,17.11
2017-10-17T20:35:52.546Z,17.17
2017-10-17T20:38:20.188Z,17.14
2017-10-17T20:40:47.811Z,17.20
2017-10-17T20:43:15.666Z,17.03
2017-10-17T20:45:43.301Z,17.03
2017-10-17T20:48:10.941Z,17.06
2017-10-17T20:50:38.789Z,17.10
2017-10-17T20:53:06.419Z,17.06
2017-10-17T20:55:34.044Z,17.05
2017-10-17T20:58:01.702Z,16.90
2017-10-17T21:00:29.359Z,16.85
2017-10-17T21:02:57.309Z,16.82
2017-10-17T21:05:24.949Z,16.74
2017-10-17T21:07:52.567Z,16.65
2017-10-17T21:10:20.169Z,16.64
2017-10-17T21:12:47.995Z,16.65
2017-10-17T21:15:15.629Z,16.49
2017-10-17T21:17:43.236Z,16.53
2017-10-17T21:20:10.909Z,16.53
2017-10-17T21:22:38.616Z,16.52
2017-10-17T21:25:06.234Z,16.55
2017-10-17T21:27:34.045Z,16.37
2017-10-17T21:30:01.694Z,16.32
2017-10-17T21:32:29.324Z,16.28
2017-10-17T21:34:56.904Z,16.32
2017-10-17T21:37:24.505Z,16.27
2017-10-17T21:39:52.215Z,16.29
2017-10-17T21:42:19.869Z,16.25
2017-10-17T21:44:47.480Z,16.24
2017-10-17T21:47:15.107Z,16.16
2017-10-17T21:49:42.731Z,16.06
2017-10-17T21:52:10.300Z,16.06
2017-10-17T21:54:37.931Z,16.11
2017-10-17T21:57:05.538Z,15.97
2017-10-17T21:59:33.174Z,16.00
2017-10-17T22:02:00.870Z,16.00
2017-10-17T22:04:28.477Z,15.96
2017-10-17T22:06:56.052Z,15.87
2017-10-17T22:09:23.666Z,15.87
2017-10-17T22:11:51.276Z,15.82
2017-10-17T22:14:18.861Z,15.76
2017-10-17T22:16:46.592Z,15.70
2017-10-17T22:19:14.149Z,15.50
2017-10-17T22:21:41.814Z,15.67
2017-10-17T22:24:09.445Z,15.65
2017-10-17T22:26:37.016Z,15.62
2017-10-17T22:29:04.633Z,15.59
2017-10-17T22:31:32.263Z,15.57
2017-10-17T22:33:59.839Z,15.52
2017-10-17T22:36:27.501Z,15.45
2017-10-17T22:38:55.112Z,15.52
2017-10-17T22:41:22.688Z,15.54
2017-10-17T22:43:50.269Z,15.15
2017-10-17T22:46:17.895Z,15.11
2017-10-17T22:48:45.545Z,15.11
2017-10-17T22:51:13.196Z,15.00
2017-10-17T22:53:40.863Z,15.19
2017-10-17T22:56:08.433Z,15.26
2017-10-17T22:58:36.048Z,15.03
2017-10-17T23:01:03.685Z,15.05
2017-10-17T23:03:31.270Z,15.08
2017-10-17T23:05:58.838Z,15.09
2017-10-17T23:08:26.444Z,15.16
2017-10-17T23:10:54.011Z,15.28
2017-10-17T23:13:21.649Z,15.15
2017-10-17T23:15:49.245Z,15.09
2017-10-17T23:18:28.613Z,15.10
2017-10-17T23:20:56.287Z,14.75
2017-10-17T23:23:23.929Z,14.81
2017-10-17T23:25:51.503Z,15.00
2017-10-17T23:28:19.150Z,14.78
2017-10-17T23:30:46.801Z,14.71
2017-10-17T23:33:14.403Z,14.79
2017-10-17T23:35:41.991Z,14.97
2017-10-17T23:38:09.640Z,15.16
2017-10-17T23:40:37.276Z,14.97
2017-10-17T23:43:05.107Z,14.91
2017-10-17T23:45:32.734Z,14.64
2017-10-17T23:48:00.366Z,14.81
2017-10-17T23:50:27.973Z,14.69
2017-10-17T23:52:55.593Z,14.55
2017-10-17T23:55:23.175Z,14.37
2017-10-17T23:57:50.807Z,14.47
